Main page
METAR-TAF:

METAR-TAF

Airports :

N'Djamena International Airport

N'Djamena, Chad

latitude: 12-08N, longitude: 015-02E, elevation: 295 m

Current weather observation

The report was made 57 minutes ago, at 06:00 UTC
Wind 15 kt from the Southwest, varying between Southwest and West
Temperature 29°C
Humidity 66%
Pressure 1008 hPa
Visibility 10 km or more
no clouds below 1500 m and no cumulonimbus

METAR: FTTJ 190600Z 22015KT 220V280 CAVOK 29/22 Q1008 NOSIG

Time: 07:57 (06:57 UTC)

Forecast

The report was made 7 hours and 57 minutes ago, at 23:00 UTC
Forecast valid from 19 at 00 UTC to 20 at 06 UTC
Wind 12 kt from the Southwest
Visibility: 8000 m
Few clouds at a height of 3000 ft
Temporary
from 19 at 10 UTC to 19 at 22 UTC
Visibility: 4000 m
thunderstorm, rain

TAF: FTTJ 182300Z 1900/2006 22012KT 8000 FEW030 TEMPO 1910/1922 4000 TSRA

Weather observations and forecasts of more than 4000 airports (METAR and TAF reports).

The available stations are represented by yellow and red dots on the map.

Hover mouse over dot to see the name of the station.

Then click to see weather observations and forecasts.

To change the map : click on the green buttons with a black cross to zoom in, on the green button with a dash to zoom out, or on the green arrows for adjacent maps.


METAR-TAF: